createdAt,value
2023-04-27T00:02:15.922Z,77.70
2023-04-27T00:04:44.673Z,79.00
2023-04-27T00:07:13.196Z,79.90
2023-04-27T00:09:40.984Z,80.60
2023-04-27T00:12:08.937Z,81.30
2023-04-27T00:14:36.771Z,81.60
2023-04-27T00:17:06.237Z,81.60
2023-04-27T00:19:34.737Z,81.70
2023-04-27T00:22:02.569Z,81.60
2023-04-27T00:24:30.517Z,81.60
2023-04-27T00:26:58.328Z,81.70
2023-04-27T00:29:26.158Z,81.80
2023-04-27T00:31:54.071Z,81.40
2023-04-27T00:34:23.230Z,81.30
2023-04-27T00:36:51.277Z,81.10
2023-04-27T00:39:19.122Z,81.00
2023-04-27T00:41:46.901Z,80.90
2023-04-27T00:44:14.737Z,80.50
2023-04-27T00:46:42.527Z,80.60
2023-04-27T00:49:10.370Z,80.90
2023-04-27T00:51:39.514Z,80.90
2023-04-27T00:54:07.492Z,81.00
2023-04-27T00:56:35.776Z,81.10
2023-04-27T00:59:03.651Z,81.30
2023-04-27T01:01:31.565Z,81.60
2023-04-27T01:03:59.585Z,81.90
2023-04-27T01:06:29.658Z,82.50
2023-04-27T01:08:58.877Z,82.50
2023-04-27T01:11:26.727Z,82.70
2023-04-27T01:13:56.951Z,83.50
2023-04-27T01:16:24.815Z,84.00
2023-04-27T01:18:52.632Z,84.50
2023-04-27T01:21:21.728Z,85.20
2023-04-27T01:23:50.929Z,85.70
2023-04-27T01:26:18.786Z,85.60
2023-04-27T01:28:46.908Z,85.50
2023-04-27T01:31:15.060Z,85.50
2023-04-27T01:33:43.355Z,85.70
2023-04-27T01:36:11.695Z,85.70
2023-04-27T01:38:39.514Z,85.30
2023-04-27T01:41:09.318Z,85.30
2023-04-27T01:43:38.031Z,85.00
2023-04-27T01:46:09.569Z,84.90
2023-04-27T01:48:37.830Z,84.80
2023-04-27T01:51:05.668Z,84.40
2023-04-27T01:53:33.425Z,83.90
2023-04-27T01:56:01.705Z,84.20
2023-04-27T01:58:30.974Z,83.80
2023-04-27T02:00:58.758Z,83.40
2023-04-27T02:03:26.779Z,83.10
2023-04-27T02:05:54.900Z,83.60
2023-04-27T02:08:22.691Z,83.70
2023-04-27T02:10:50.448Z,83.60
2023-04-27T02:13:18.352Z,83.40
2023-04-27T02:15:47.582Z,83.20
2023-04-27T02:18:15.964Z,83.00
2023-04-27T02:20:43.844Z,83.50
2023-04-27T02:23:11.672Z,83.70
2023-04-27T02:25:42.804Z,84.00
2023-04-27T02:28:10.626Z,84.00
2023-04-27T02:30:38.868Z,84.30
2023-04-27T02:33:08.083Z,84.50
2023-04-27T02:35:35.934Z,84.70
2023-04-27T02:38:03.736Z,85.00
2023-04-27T02:40:31.524Z,85.00
2023-04-27T02:42:59.308Z,84.30
2023-04-27T02:45:27.131Z,84.20
2023-04-27T02:47:54.978Z,84.40
2023-04-27T02:50:24.098Z,84.50
2023-04-27T02:52:51.876Z,84.60
2023-04-27T02:55:21.438Z,84.40
2023-04-27T02:57:49.234Z,84.40
2023-04-27T03:00:18.881Z,84.60
2023-04-27T03:02:47.364Z,84.60
2023-04-27T03:05:15.259Z,84.70
2023-04-27T03:07:44.460Z,84.10
2023-04-27T03:10:12.379Z,84.10
2023-04-27T03:12:40.199Z,83.90
2023-04-27T03:15:09.064Z,83.50
2023-04-27T03:17:36.887Z,83.30
2023-04-27T03:20:08.570Z,83.20
2023-04-27T03:22:36.503Z,83.10
2023-04-27T03:25:06.828Z,82.60
2023-04-27T03:27:34.625Z,82.70
2023-04-27T03:30:03.495Z,83.40
2023-04-27T03:32:31.441Z,83.50
2023-04-27T03:34:59.283Z,82.70
2023-04-27T03:37:27.689Z,82.90
2023-04-27T03:39:55.492Z,83.20
2023-04-27T03:42:24.623Z,83.40
2023-04-27T03:44:52.430Z,83.70
2023-04-27T03:47:20.238Z,83.70
2023-04-27T03:49:48.055Z,83.50
2023-04-27T03:52:15.839Z,82.80
2023-04-27T03:54:43.647Z,82.40
2023-04-27T03:57:11.529Z,82.20
2023-04-27T03:59:40.666Z,82.40
2023-04-27T04:02:09.623Z,82.30
2023-04-27T04:04:37.578Z,82.80
2023-04-27T04:07:05.899Z,82.40
2023-04-27T04:09:33.801Z,82.60
2023-04-27T04:12:01.898Z,83.20
2023-04-27T04:14:29.676Z,83.60
2023-04-27T04:16:58.826Z,83.60
2023-04-27T04:19:26.797Z,83.40
2023-04-27T04:21:57.033Z,83.20
2023-04-27T04:24:25.037Z,83.40
2023-04-27T04:26:52.850Z,82.90
2023-04-27T04:29:21.871Z,82.00
2023-04-27T04:31:49.829Z,81.70
2023-04-27T04:34:19.467Z,81.70
2023-04-27T04:36:47.249Z,81.70
2023-04-27T04:39:15.941Z,82.00
2023-04-27T04:41:44.026Z,82.40
2023-04-27T04:44:11.836Z,82.10
2023-04-27T04:46:39.771Z,81.50
2023-04-27T04:49:07.619Z,81.70
2023-04-27T04:51:36.883Z,81.90
2023-04-27T04:54:04.789Z,81.40
2023-04-27T04:56:32.651Z,81.60
2023-04-27T04:59:00.767Z,81.00
2023-04-27T05:01:28.637Z,80.80
2023-04-27T05:03:56.644Z,80.50
2023-04-27T05:06:24.700Z,80.40
2023-04-27T05:08:53.881Z,80.80
2023-04-27T05:11:22.137Z,80.10
2023-04-27T05:13:49.929Z,79.10
2023-04-27T05:16:17.863Z,79.20
2023-04-27T05:18:45.724Z,78.60
2023-04-27T05:21:17.605Z,78.70
2023-04-27T05:23:45.412Z,77.60
2023-04-27T05:26:15.383Z,76.80
2023-04-27T05:28:43.708Z,76.20
2023-04-27T05:31:11.845Z,75.30
2023-04-27T05:33:39.632Z,74.90
2023-04-27T05:36:07.835Z,74.50
2023-04-27T05:38:37.441Z,74.50
2023-04-27T05:41:05.288Z,74.00
2023-04-27T05:43:35.079Z,74.10
2023-04-27T05:46:03.020Z,73.50
2023-04-27T05:48:31.165Z,72.90
2023-04-27T05:51:02.841Z,72.20
2023-04-27T05:53:30.751Z,72.80
2023-04-27T05:55:59.358Z,73.90
2023-04-27T05:58:27.369Z,72.90
2023-04-27T06:00:57.208Z,73.10
2023-04-27T06:03:25.177Z,73.70
2023-04-27T06:05:58.171Z,73.90
2023-04-27T06:08:27.039Z,73.20
2023-04-27T06:10:55.327Z,74.00
2023-04-27T06:13:23.214Z,74.90
2023-04-27T06:15:51.099Z,72.00
2023-04-27T06:18:20.270Z,71.20
2023-04-27T06:20:48.060Z,70.70
2023-04-27T06:23:15.930Z,69.80
2023-04-27T06:25:43.754Z,71.20
2023-04-27T06:28:11.829Z,70.50
2023-04-27T06:30:39.926Z,71.50
2023-04-27T06:33:07.767Z,69.20
2023-04-27T06:35:36.924Z,70.10
2023-04-27T06:38:07.334Z,70.40
2023-04-27T06:40:36.260Z,69.40
2023-04-27T06:43:04.798Z,69.30
2023-04-27T06:45:32.609Z,69.50
2023-04-27T06:48:00.788Z,68.40
2023-04-27T06:50:29.233Z,68.00
2023-04-27T06:52:58.523Z,68.90
2023-04-27T06:55:26.399Z,68.20
2023-04-27T06:57:54.225Z,67.60
2023-04-27T07:00:22.741Z,68.20
2023-04-27T07:02:50.725Z,67.40
2023-04-27T07:05:18.671Z,65.20
2023-04-27T07:07:46.484Z,63.60
2023-04-27T07:10:15.886Z,62.90
2023-04-27T07:12:44.028Z,63.40
2023-04-27T07:15:12.291Z,63.30
2023-04-27T07:17:40.124Z,62.60
2023-04-27T07:20:09.431Z,63.10
2023-04-27T07:22:37.470Z,62.50
2023-04-27T07:25:06.319Z,62.90
2023-04-27T07:27:35.703Z,61.30
2023-04-27T07:30:03.608Z,61.30
2023-04-27T07:32:31.562Z,61.90
2023-04-27T07:34:59.548Z,62.90
2023-04-27T07:37:28.765Z,61.90
2023-04-27T07:39:56.633Z,61.40
2023-04-27T07:42:25.084Z,61.40
2023-04-27T07:44:54.314Z,61.70
2023-04-27T07:47:22.186Z,60.80
2023-04-27T07:49:50.160Z,60.20
2023-04-27T07:52:17.984Z,59.50
2023-04-27T07:54:45.797Z,60.50
2023-04-27T07:57:13.605Z,60.70
2023-04-27T07:59:41.822Z,60.40
2023-04-27T08:02:18.490Z,58.60
2023-04-27T08:04:48.372Z,59.20
2023-04-27T08:07:17.637Z,58.60
2023-04-27T08:09:45.895Z,58.00
2023-04-27T08:12:13.775Z,58.90
2023-04-27T08:14:41.559Z,56.70
2023-04-27T08:17:11.360Z,56.70
2023-04-27T08:19:39.759Z,56.00
2023-04-27T08:22:08.463Z,55.00
2023-04-27T08:24:36.323Z,54.10
2023-04-27T08:27:04.370Z,54.90
2023-04-27T08:29:32.393Z,55.20
2023-04-27T08:32:01.766Z,57.60
2023-04-27T08:34:31.952Z,56.70
2023-04-27T08:37:00.387Z,57.30
2023-04-27T08:39:28.792Z,57.30
2023-04-27T08:41:56.827Z,57.50
2023-04-27T08:44:24.683Z,57.70
2023-04-27T08:46:52.714Z,56.20
2023-04-27T08:49:21.785Z,54.90
2023-04-27T08:51:51.146Z,52.60
2023-04-27T08:54:20.525Z,53.60
2023-04-27T08:56:48.328Z,51.90
2023-04-27T08:59:17.798Z,51.50
2023-04-27T09:01:47.027Z,50.90
2023-04-27T09:04:15.868Z,52.50
2023-04-27T09:06:43.954Z,52.80
2023-04-27T09:09:23.151Z,52.70
2023-04-27T09:11:51.306Z,53.60
2023-04-27T09:14:21.381Z,50.50
2023-04-27T09:16:57.392Z,50.20
2023-04-27T09:19:26.320Z,52.30
2023-04-27T09:22:05.331Z,49.70
2023-04-27T09:24:34.665Z,49.80
2023-04-27T09:27:03.198Z,50.40
2023-04-27T09:29:34.796Z,49.40
2023-04-27T09:32:03.667Z,46.20
2023-04-27T09:34:41.047Z,48.20
2023-04-27T09:37:09.854Z,45.50
2023-04-27T09:39:39.593Z,45.10
2023-04-27T09:42:08.450Z,46.80
2023-04-27T09:44:37.063Z,47.80
2023-04-27T09:47:05.971Z,46.50
2023-04-27T09:49:36.189Z,48.30
2023-04-27T09:52:04.277Z,48.30
2023-04-27T09:54:35.174Z,48.80
2023-04-27T09:57:17.349Z,49.30
2023-04-27T10:00:10.906Z,48.30
2023-04-27T10:02:53.154Z,46.90
2023-04-27T10:05:35.970Z,47.60
2023-04-27T10:08:05.220Z,46.90
2023-04-27T10:10:43.764Z,45.90
2023-04-27T10:13:22.367Z,45.90
2023-04-27T10:15:50.552Z,50.50
2023-04-27T10:18:28.525Z,51.00
2023-04-27T10:20:56.349Z,48.60
2023-04-27T10:23:25.259Z,51.30
2023-04-27T10:25:54.312Z,51.10
2023-04-27T10:28:23.469Z,50.20
2023-04-27T10:30:51.980Z,51.70
2023-04-27T10:33:22.757Z,50.30
2023-04-27T10:35:58.085Z,49.10
2023-04-27T10:38:29.956Z,48.10
2023-04-27T10:41:01.530Z,48.00
2023-04-27T10:43:32.914Z,49.10
2023-04-27T10:46:11.610Z,48.20
2023-04-27T10:48:40.688Z,46.50
2023-04-27T10:51:08.630Z,48.30
2023-04-27T10:53:36.846Z,48.60
2023-04-27T10:56:07.092Z,47.90
2023-04-27T10:58:48.215Z,46.80
2023-04-27T11:01:25.130Z,46.90
2023-04-27T11:03:56.344Z,49.20
2023-04-27T11:06:24.287Z,47.70
2023-04-27T11:08:52.178Z,48.30
2023-04-27T11:11:20.583Z,45.30
2023-04-27T11:13:52.744Z,46.40
2023-04-27T11:16:20.849Z,47.80
2023-04-27T11:18:48.809Z,46.70
2023-04-27T11:21:18.948Z,43.50
2023-04-27T11:23:46.849Z,45.30
2023-04-27T11:26:16.368Z,44.10
2023-04-27T11:28:45.013Z,44.50
2023-04-27T11:31:14.231Z,46.00
2023-04-27T11:33:49.403Z,44.80
2023-04-27T11:36:18.176Z,44.10
2023-04-27T11:38:46.155Z,44.30
2023-04-27T11:41:14.382Z,45.00
2023-04-27T11:43:43.420Z,46.90
2023-04-27T11:46:12.267Z,46.80
2023-04-27T11:48:41.536Z,47.00
2023-04-27T11:51:11.943Z,45.50
2023-04-27T11:53:40.780Z,44.50
2023-04-27T11:56:11.078Z,44.60
2023-04-27T11:58:40.426Z,42.90
2023-04-27T12:01:10.092Z,42.30
2023-04-27T12:03:38.410Z,43.90
2023-04-27T12:06:27.771Z,43.90
2023-04-27T12:08:56.970Z,43.60
2023-04-27T12:11:25.618Z,44.20
2023-04-27T12:13:53.748Z,43.70
2023-04-27T12:16:22.905Z,43.30
2023-04-27T12:18:51.668Z,42.30
2023-04-27T12:21:21.311Z,44.00
2023-04-27T12:23:49.401Z,42.70
2023-04-27T12:26:17.274Z,44.60
2023-04-27T12:28:45.104Z,45.10
2023-04-27T12:31:16.941Z,45.30
2023-04-27T12:33:44.770Z,44.80
2023-04-27T12:36:12.562Z,46.20
2023-04-27T12:38:41.986Z,47.50
2023-04-27T12:41:09.872Z,46.40
2023-04-27T12:43:38.222Z,46.30
2023-04-27T12:46:06.100Z,46.00
2023-04-27T12:48:34.439Z,46.30
2023-04-27T12:51:02.583Z,46.70
2023-04-27T12:53:30.473Z,45.10
2023-04-27T12:56:01.937Z,43.60
2023-04-27T12:58:29.849Z,43.10
2023-04-27T13:00:58.786Z,44.30
2023-04-27T13:03:26.705Z,43.10
2023-04-27T13:05:54.744Z,43.40
2023-04-27T13:08:22.560Z,43.40
2023-04-27T13:10:50.461Z,43.50
2023-04-27T13:13:19.630Z,43.60
2023-04-27T13:15:47.564Z,43.30
2023-04-27T13:18:15.584Z,43.30
2023-04-27T13:20:44.083Z,43.20
2023-04-27T13:23:11.915Z,43.90
2023-04-27T13:25:39.804Z,44.50
2023-04-27T13:28:07.728Z,43.70
2023-04-27T13:30:36.853Z,42.80
2023-04-27T13:33:21.017Z,44.10
2023-04-27T13:35:51.119Z,42.80
2023-04-27T13:38:19.049Z,43.60
2023-04-27T13:40:46.890Z,42.50
2023-04-27T13:43:14.687Z,43.10
2023-04-27T13:45:45.491Z,42.80
2023-04-27T13:48:13.313Z,41.90
2023-04-27T13:50:41.213Z,43.80
2023-04-27T13:53:09.035Z,43.20
2023-04-27T13:55:37.242Z,44.10
2023-04-27T13:58:05.766Z,46.00
2023-04-27T14:00:34.737Z,44.20
2023-04-27T14:03:04.940Z,44.80
2023-04-27T14:05:32.999Z,43.90
2023-04-27T14:08:00.854Z,43.50
2023-04-27T14:10:28.689Z,43.90
2023-04-27T14:12:57.526Z,42.60
2023-04-27T14:15:25.427Z,43.40
2023-04-27T14:17:53.301Z,42.90
2023-04-27T14:20:22.569Z,44.20
2023-04-27T14:22:50.398Z,44.40
2023-04-27T14:25:18.573Z,43.40
2023-04-27T14:27:46.381Z,44.10
2023-04-27T14:30:15.484Z,45.90
2023-04-27T14:32:43.341Z,45.40
2023-04-27T14:35:11.211Z,45.20
2023-04-27T14:37:40.449Z,46.00
2023-04-27T14:40:10.244Z,46.70
2023-04-27T14:42:38.030Z,46.40
2023-04-27T14:45:06.829Z,45.60
2023-04-27T14:47:34.644Z,46.80
2023-04-27T14:50:02.530Z,45.90
2023-04-27T14:52:30.742Z,45.60
2023-04-27T14:55:00.726Z,46.20
2023-04-27T14:57:28.564Z,45.70
2023-04-27T14:59:56.996Z,45.40
2023-04-27T15:02:24.910Z,44.70
2023-04-27T15:04:52.831Z,44.60
2023-04-27T15:07:21.431Z,43.90
2023-04-27T15:09:49.411Z,43.20
2023-04-27T15:12:18.566Z,42.50
2023-04-27T15:14:46.383Z,43.50
2023-04-27T15:17:14.387Z,43.60
2023-04-27T15:19:42.236Z,42.90
2023-04-27T15:22:10.273Z,43.90
2023-04-27T15:24:38.128Z,45.40
2023-04-27T15:27:07.769Z,44.70
2023-04-27T15:29:38.813Z,45.00
2023-04-27T15:32:06.641Z,44.70
2023-04-27T15:34:34.439Z,45.20
2023-04-27T15:37:02.941Z,45.60
2023-04-27T15:39:31.082Z,46.20
2023-04-27T15:41:59.757Z,46.70
2023-04-27T15:44:27.896Z,45.60
2023-04-27T15:46:57.052Z,45.40
2023-04-27T15:49:24.871Z,44.90
2023-04-27T15:51:55.191Z,44.80
2023-04-27T15:54:23.080Z,46.40
2023-04-27T15:56:51.057Z,45.90
2023-04-27T15:59:19.004Z,45.70
2023-04-27T16:01:46.875Z,45.40
2023-04-27T16:04:16.429Z,45.50
2023-04-27T16:06:44.416Z,46.10
2023-04-27T16:09:12.398Z,46.30
2023-04-27T16:11:40.466Z,45.80
2023-04-27T16:14:08.256Z,46.80
2023-04-27T16:16:36.260Z,46.20
2023-04-27T16:19:04.383Z,45.80
2023-04-27T16:21:33.976Z,46.40
2023-04-27T16:24:01.903Z,45.40
2023-04-27T16:26:29.699Z,45.90
2023-04-27T16:28:57.517Z,46.40
2023-04-27T16:31:25.631Z,46.30
2023-04-27T16:33:53.513Z,45.90
2023-04-27T16:36:21.477Z,46.40
2023-04-27T16:38:50.579Z,46.30
2023-04-27T16:41:18.388Z,44.90
2023-04-27T16:43:46.239Z,46.00
2023-04-27T16:46:14.788Z,44.60
2023-04-27T16:48:42.638Z,45.60
2023-04-27T16:51:10.731Z,45.40
2023-04-27T16:53:38.565Z,45.30
2023-04-27T16:56:09.972Z,45.80
2023-04-27T16:58:37.780Z,46.20
2023-04-27T17:01:05.662Z,46.80
2023-04-27T17:03:34.762Z,47.40
2023-04-27T17:06:03.001Z,47.50
2023-04-27T17:08:30.956Z,47.90
2023-04-27T17:10:58.789Z,47.90
2023-04-27T17:13:27.928Z,48.40
2023-04-27T17:15:55.747Z,48.40
2023-04-27T17:18:23.535Z,48.30
2023-04-27T17:20:51.298Z,47.50
2023-04-27T17:23:19.080Z,47.70
2023-04-27T17:25:47.016Z,47.80
2023-04-27T17:28:14.895Z,48.20
2023-04-27T17:30:44.068Z,47.80
2023-04-27T17:33:12.004Z,47.50
2023-04-27T17:35:39.833Z,47.50
2023-04-27T17:38:07.645Z,48.00
2023-04-27T17:40:35.558Z,48.50
2023-04-27T17:43:03.369Z,47.90
2023-04-27T17:45:31.917Z,49.30
2023-04-27T17:48:01.108Z,49.20
2023-04-27T17:50:30.564Z,50.30
2023-04-27T17:52:58.803Z,50.30
2023-04-27T17:55:27.059Z,50.70
2023-04-27T17:57:54.836Z,50.30
2023-04-27T18:00:23.583Z,51.30
2023-04-27T18:02:51.790Z,53.90
2023-04-27T18:05:21.063Z,56.50
2023-04-27T18:07:50.049Z,58.20
2023-04-27T18:10:17.951Z,59.30
2023-04-27T18:12:45.801Z,61.00
2023-04-27T18:15:13.631Z,61.10
2023-04-27T18:17:41.528Z,61.00
2023-04-27T18:20:10.714Z,61.90
2023-04-27T18:22:41.159Z,61.90
2023-04-27T18:25:10.470Z,62.60
2023-04-27T18:27:38.505Z,62.60
2023-04-27T18:30:08.244Z,63.50
2023-04-27T18:32:36.206Z,63.90
2023-04-27T18:35:04.730Z,64.30
2023-04-27T18:37:33.149Z,64.00
2023-04-27T18:40:02.435Z,64.50
2023-04-27T18:42:30.422Z,64.90
2023-04-27T18:45:01.712Z,65.30
2023-04-27T18:47:29.606Z,64.90
2023-04-27T18:49:57.452Z,64.60
2023-04-27T18:52:25.297Z,64.90
2023-04-27T18:54:53.136Z,64.70
2023-04-27T18:57:22.298Z,64.60
2023-04-27T18:59:50.103Z,64.10
2023-04-27T19:02:17.938Z,63.40
2023-04-27T19:04:52.768Z,62.80
2023-04-27T19:07:25.392Z,62.50
2023-04-27T19:09:54.929Z,62.40
2023-04-27T19:12:24.607Z,62.70
2023-04-27T19:14:52.984Z,63.70
2023-04-27T19:17:21.199Z,63.30
2023-04-27T19:19:49.133Z,63.50
2023-04-27T19:22:16.988Z,64.20
2023-04-27T19:24:44.812Z,64.20
2023-04-27T19:27:12.656Z,64.50
2023-04-27T19:29:53.750Z,64.30
2023-04-27T19:32:22.136Z,64.30
2023-04-27T19:34:50.014Z,64.40
2023-04-27T19:37:17.999Z,64.80
2023-04-27T19:39:45.830Z,65.20
2023-04-27T19:42:14.087Z,65.90
2023-04-27T19:44:41.981Z,65.40
2023-04-27T19:47:11.717Z,65.90
2023-04-27T19:49:39.976Z,66.00
2023-04-27T19:52:07.964Z,65.90
2023-04-27T19:54:38.251Z,65.90
2023-04-27T19:57:06.376Z,66.20
2023-04-27T19:59:34.251Z,66.20
2023-04-27T20:02:02.487Z,66.00
2023-04-27T20:04:32.966Z,65.70
2023-04-27T20:07:01.787Z,65.60
2023-04-27T20:09:30.213Z,65.50
2023-04-27T20:11:58.148Z,65.80
2023-04-27T20:14:28.985Z,65.70
2023-04-27T20:16:56.842Z,65.50
2023-04-27T20:19:25.196Z,65.00
2023-04-27T20:21:54.397Z,64.60
2023-04-27T20:24:22.663Z,63.80
2023-04-27T20:26:50.698Z,64.10
2023-04-27T20:29:18.561Z,65.40
2023-04-27T20:31:48.409Z,65.50
2023-04-27T20:34:16.633Z,66.30
2023-04-27T20:36:44.571Z,66.60
2023-04-27T20:39:14.541Z,66.40
2023-04-27T20:41:42.692Z,66.70
2023-04-27T20:44:11.723Z,66.70
2023-04-27T20:46:39.780Z,67.30
2023-04-27T20:49:07.669Z,67.80
2023-04-27T20:51:36.522Z,68.30
2023-04-27T20:54:04.352Z,69.10
2023-04-27T20:56:33.759Z,70.00
2023-04-27T20:59:01.588Z,70.80
2023-04-27T21:01:29.495Z,71.10
2023-04-27T21:03:57.406Z,70.80
2023-04-27T21:06:25.262Z,71.40
2023-04-27T21:08:53.062Z,71.70
2023-04-27T21:11:21.250Z,71.50
2023-04-27T21:13:50.449Z,71.30
2023-04-27T21:16:18.326Z,71.20
2023-04-27T21:18:46.116Z,71.40
2023-04-27T21:21:14.007Z,71.60
2023-04-27T21:23:41.836Z,71.80
2023-04-27T21:26:09.818Z,72.40
2023-04-27T21:28:37.919Z,72.20
2023-04-27T21:31:07.697Z,72.20
2023-04-27T21:33:35.510Z,72.60
2023-04-27T21:36:04.713Z,72.30
2023-04-27T21:38:32.536Z,71.30
2023-04-27T21:41:00.446Z,71.80
2023-04-27T21:43:28.507Z,72.70
2023-04-27T21:45:56.360Z,72.40
2023-04-27T21:48:25.524Z,72.30
2023-04-27T21:50:53.367Z,73.20
2023-04-27T21:53:21.152Z,72.90
2023-04-27T21:55:49.472Z,72.50
2023-04-27T21:58:17.386Z,71.30
2023-04-27T22:00:45.234Z,70.90
2023-04-27T22:03:13.137Z,71.20
2023-04-27T22:05:42.443Z,71.00
2023-04-27T22:08:10.195Z,71.30
2023-04-27T22:10:38.010Z,72.00
2023-04-27T22:13:17.550Z,72.40
2023-04-27T22:15:46.197Z,72.60
2023-04-27T22:18:15.292Z,73.90
2023-04-27T22:20:44.559Z,73.70
2023-04-27T22:23:12.373Z,73.90
2023-04-27T22:25:42.643Z,73.70
2023-04-27T22:28:10.629Z,72.80
2023-04-27T22:30:38.757Z,72.30
2023-04-27T22:33:06.727Z,72.80
2023-04-27T22:35:34.979Z,73.90
2023-04-27T22:38:04.206Z,73.80
2023-04-27T22:40:32.002Z,74.30
2023-04-27T22:42:59.787Z,74.60
2023-04-27T22:45:27.557Z,73.30
2023-04-27T22:47:55.383Z,73.40
2023-04-27T22:50:23.201Z,72.70
2023-04-27T22:52:52.982Z,72.40
2023-04-27T22:55:22.329Z,72.50
2023-04-27T22:57:50.750Z,71.50
2023-04-27T23:00:18.826Z,70.30
2023-04-27T23:02:47.265Z,70.70
2023-04-27T23:05:15.149Z,71.00
2023-04-27T23:07:43.441Z,72.00
2023-04-27T23:10:12.920Z,71.90
2023-04-27T23:12:42.061Z,71.80
2023-04-27T23:15:10.708Z,71.00
2023-04-27T23:17:38.514Z,70.70
2023-04-27T23:20:24.173Z,70.60
2023-04-27T23:22:54.952Z,71.50
2023-04-27T23:25:22.749Z,71.70
2023-04-27T23:27:52.764Z,71.00
2023-04-27T23:30:21.331Z,70.60
2023-04-27T23:32:49.241Z,70.60
2023-04-27T23:35:17.105Z,70.80
2023-04-27T23:37:44.947Z,70.60
2023-04-27T23:40:14.069Z,70.20
2023-04-27T23:42:41.937Z,70.20
2023-04-27T23:45:12.160Z,70.20
2023-04-27T23:47:40.046Z,70.80
2023-04-27T23:50:08.760Z,70.40
2023-04-27T23:52:37.079Z,70.70
2023-04-27T23:55:05.453Z,71.40
2023-04-27T23:57:33.231Z,71.80
